Terminal Aerodrome Forecast
Issued by NWS

Home | Current Version | Previous Version | Text Only | Print | Product List | Glossary On
Versions: 1 2 3 4 5 6 7 8 9 10 11 12 13 14
000
FTUS46 KLOX 250500
TAFPMD
TAF
KPMD 250525Z 2506/2606 24007KT P6SM SKC
     FM251000 VRB03KT P6SM SKC
     FM251800 25012KT P6SM SCT200
     FM252100 25015G20KT P6SM SCT200
     FM260300 25010KT P6SM SCT200=

USA.gov is the U.S. government's official web portal to all federal, state and local government web resources and services.